Flight Track Log - Related Links

Times and Time Zones

All times are in EDT time to prevent confusion due to time zone crossing. See the SWA1729 flight status page for this flight to view local times or setup timezone preferences in your user account.

Time Position Orientation Groundspeed Altitude Reporting Facility
EDT Latitude Longitude Course Direction KTS MPH feet Rate Location/Type
Sun 07:34:20 PM 36.1333 -86.6833 352° North 155 178 1,200  Level Nashville TRACON
Sun 07:35:46 PM 36.2067 -86.6967 352° North 200 230 4,500 2,671 Climbing Memphis Center
Sun 07:36:46 PM 36.1864 -86.7878 255° West 223 257 7,700 3,100 Climbing Memphis Center
Sun 07:37:46 PM 36.1700 -86.8733 257° West 255 293 10,700 2,300 Climbing Memphis Center
Sun 07:38:46 PM 36.1481 -86.9872 257° West 317 365 12,300 2,250 Climbing Memphis Center
Sun 07:39:46 PM 36.1222 -87.1067 255° West 360 414 15,200 2,700 Climbing Memphis Center
Sun 07:40:46 PM 36.0964 -87.2361 256° West 381 438 17,700 2,400 Climbing Memphis Center
Sun 07:41:46 PM 36.0683 -87.3681 255° West 387 445 20,000 2,100 Climbing Memphis Center
Sun 07:42:46 PM 36.0406 -87.5128 257° West 398 458 21,900 1,850 Climbing Memphis Center
Sun 07:43:46 PM 36.0122 -87.6497 256° West 403 464 23,700 1,750 Climbing Memphis Center
Sun 07:44:46 PM 35.9839 -87.7919 256° West 413 475 25,400 1,850 Climbing Memphis Center
Sun 07:45:46 PM 35.9556 -87.9336 256° West 418 481 27,400 2,050 Climbing Memphis Center
Sun 07:46:46 PM 35.9267 -88.0653 255° West 418 481 29,500 1,750 Climbing Memphis Center
Sun 07:47:46 PM 35.8892 -88.1767 247° West 412 474 30,900 1,450 Climbing Memphis Center
Sun 07:48:46 PM 35.8075 -88.2733 224° Southwest 398 458 32,400 1,450 Climbing Memphis Center
Sun 07:49:46 PM 35.7278 -88.3700 225° Southwest 403 464 33,800 1,000 Climbing Memphis Center
Sun 07:50:46 PM 35.6478 -88.4664 224° Southwest 403 464 34,400 800 Climbing Memphis Center
Sun 07:51:46 PM 35.5619 -88.5731 225° Southwest 408 470 35,400 800 Climbing Memphis Center
Sun 07:52:46 PM 35.4797 -88.6692 224° Southwest 408 470 36,000 300 Climbing Memphis Center
Sun 07:53:46 PM 35.4122 -88.7597 228° Southwest 403 464 36,000  Level Memphis Center
Sun 07:54:46 PM 35.3278 -88.8581 224° Southwest 411 473 36,000  Level Memphis Center
Sun 07:55:46 PM 35.2456 -88.9586 225° Southwest 417 480 36,000  Level Memphis Center
Sun 07:56:46 PM 35.1550 -89.0644 224° Southwest 417 480 36,000  Level Memphis Center
Sun 07:57:46 PM 35.0744 -89.1619 225° Southwest 412 474 36,000  Level Memphis Center
Sun 07:58:46 PM 34.9961 -89.2569 225° Southwest 405 466 36,000  Level Memphis Center
Sun 07:59:46 PM 34.9156 -89.3492 223° Southwest 400 460 36,000  Level Memphis Center
Sun 08:00:46 PM 34.8350 -89.4436 224° Southwest 400 460 36,000  Level Memphis Center
Sun 08:01:46 PM 34.7522 -89.5406 224° Southwest 406 467 36,000  Level Memphis Center
Sun 08:02:46 PM 34.6756 -89.6272 223° Southwest 412 474 36,000  Level Memphis Center
Sun 08:03:46 PM 34.5947 -89.7264 225° Southwest 412 474 36,000  Level Memphis Center
Sun 08:04:46 PM 34.5139 -89.8228 225° Southwest 406 467 36,000  Level Memphis Center
Sun 08:05:46 PM 34.4347 -89.9189 225° Southwest 406 467 36,000  Level Memphis Center
Sun 08:06:46 PM 34.3456 -90.0250 225° Southwest 406 467 36,000  Level Memphis Center
Sun 08:07:46 PM 34.2642 -90.1183 223° Southwest 401 461 36,000  Level Memphis Center
Sun 08:08:46 PM 34.1831 -90.2117 224° Southwest 401 461 36,000  Level Memphis Center
Sun 08:09:46 PM 34.1039 -90.3044 224° Southwest 401 461 36,000  Level Memphis Center
Sun 08:10:46 PM 34.0225 -90.3947 223° Southwest 401 461 36,000  Level Memphis Center
Sun 08:11:46 PM 33.9431 -90.4875 224° Southwest 401 461 36,000  Level Memphis Center
Sun 08:12:46 PM 33.8636 -90.5772 223° Southwest 395 455 36,000  Level Memphis Center
Sun 08:13:46 PM 33.7861 -90.6697 225° Southwest 395 455 36,000 50 Level Memphis Center
Sun 08:14:46 PM 33.7067 -90.7592 223° Southwest 395 455 36,100  Climbing Memphis Center
Sun 08:15:46 PM 33.6269 -90.8486 223° Southwest 395 455 36,000 -50 Descending Memphis Center
Sun 08:16:46 PM 33.5472 -90.9381 223° Southwest 395 455 36,000 50 Level Memphis Center
Sun 08:17:46 PM 33.4758 -91.0197 224° Southwest 395 455 36,100  Climbing Memphis Center
Sun 08:18:46 PM 33.3983 -91.1086 224° Southwest 395 455 36,000 -50 Descending Memphis Center
Sun 08:19:46 PM 33.3164 -91.2000 223° Southwest 395 455 36,000  Level Memphis Center
Sun 08:20:46 PM 33.2406 -91.2886 224° Southwest 395 455 36,000  Level Memphis Center
Sun 08:21:46 PM 33.1583 -91.3797 223° Southwest 395 455 36,000  Level Memphis Center
Sun 08:23:18 PM 33.0272 -91.5244 223° Southwest 402 463 36,000  Level Fort Worth Center
Sun 08:24:18 PM 32.9500 -91.6111 223° Southwest 397 457 36,000  Level Fort Worth Center
Sun 08:25:18 PM 32.8706 -91.6978 223° Southwest 397 457 36,000  Level Fort Worth Center
Sun 08:26:18 PM 32.7931 -91.7844 223° Southwest 397 457 36,000  Level Fort Worth Center
Sun 08:27:18 PM 32.7258 -91.8725 228° Southwest 383 441 36,000  Level Fort Worth Center
Sun 08:29:19 PM 32.5808 -92.0447 225° Southwest 378 435 36,000  Level Houston Center
Sun 08:30:21 PM 32.5069 -92.1322 225° Southwest 378 435 36,000  Level Houston Center
Sun 08:31:23 PM 32.4350 -92.2219 226° Southwest 375 432 36,000  Level Houston Center
Sun 08:32:25 PM 32.3467 -92.3306 226° Southwest 380 437 36,000  Level Houston Center
Sun 08:33:27 PM 32.2736 -92.4186 226° Southwest 378 435 36,000  Level Houston Center
Sun 08:34:29 PM 32.1997 -92.5094 226° Southwest 380 437 36,000  Level Houston Center
Sun 08:35:31 PM 32.1250 -92.5975 225° Southwest 381 438 36,000  Level Houston Center
Sun 08:36:33 PM 32.0497 -92.6892 226° Southwest 387 445 36,000  Level Houston Center
Sun 08:37:35 PM 31.9725 -92.7806 225° Southwest 392 451 36,000  Level Houston Center
Sun 08:38:36 PM 31.8808 -92.8942 226° Southwest 400 460 36,000  Level Houston Center
Sun 08:39:38 PM 31.8128 -92.9769 226° Southwest 397 457 36,000  Level Houston Center
Sun 08:40:40 PM 31.7281 -93.0775 225° Southwest 397 457 36,000  Level Houston Center
Sun 08:41:42 PM 31.6506 -93.1686 225° Southwest 396 456 36,000  Level Houston Center
Sun 08:42:44 PM 31.5728 -93.2608 225° Southwest 397 457 36,000  Level Houston Center
Sun 08:43:46 PM 31.4919 -93.3569 225° Southwest 387 445 36,000  Level Houston Center
Sun 08:44:47 PM 31.4164 -93.4467 225° Southwest 388 447 36,000 -390 Level Houston Center
Sun 08:45:49 PM 31.3400 -93.5358 225° Southwest 390 449 35,200 -968 Descending Houston Center
Sun 08:46:51 PM 31.2531 -93.6361 225° Southwest 391 450 34,000 -1,024 Descending Houston Center
Sun 08:47:52 PM 31.1761 -93.7269 225° Southwest 394 453 33,100 -927 Descending Houston Center
Sun 08:48:54 PM 31.0975 -93.8181 225° Southwest 400 460 32,100 -927 Descending Houston Center
Sun 08:49:55 PM 31.0150 -93.9147 225° Southwest 400 460 31,200 -927 Descending Houston Center
Sun 08:50:57 PM 30.9397 -94.0031 225° Southwest 407 468 30,200 -1,016 Descending Houston Center
Sun 08:51:59 PM 30.8433 -94.1150 225° Southwest 410 472 29,100 -927 Descending Houston Center
Sun 08:53:00 PM 30.7714 -94.1983 225° Southwest 412 474 28,300 -1,415 Descending Houston Center
Sun 08:54:02 PM 30.6806 -94.3044 225° Southwest 418 481 26,200 -2,387 Descending Houston Center
Sun 08:54:33 PM 30.6347 -94.3581 225° Southwest 411 473 24,600 -2,459 Descending Houston Center
Sun 08:55:03 PM 30.6019 -94.3933 223° Southwest 399 459 23,700 -2,152 Descending Houston Center
Sun 08:56:05 PM 30.5272 -94.4783 224° Southwest 381 438 21,300 -2,390 Descending Houston Center
Sun 08:57:06 PM 30.4572 -94.5761 230° Southwest 345 397 18,800 -2,439 Descending Houston Center
Sun 08:58:08 PM 30.3983 -94.6669 233° Southwest 339 390 16,300 -2,293 Descending Houston Center
Sun 08:59:09 PM 30.3422 -94.7533 233° Southwest 336 387 14,100 -2,164 Descending Houston Center
Sun 09:00:10 PM 30.2892 -94.8375 234° Southwest 325 374 11,900 -1,512 Descending Houston Center
Sun 09:01:12 PM 30.2367 -94.9194 233° Southwest 319 367 11,000 -439 Descending Houston Center
Sun 09:02:13 PM 30.1839 -94.9994 233° Southwest 315 362 11,000 -390 Level Houston Center
Sun 09:03:15 PM 30.1281 -95.0725 229° Southwest 306 352 10,200 -469 Descending Houston Center
Sun 09:04:21 PM 30.0350 -95.1150 202° Southwest 285 328 10,000 -829 Descending Houston Center
Sun 09:05:18 PM 29.9792 -95.1389 200° South 287 330 8,500 -1,017 Descending Houston Center
Sun 09:06:19 PM 29.8956 -95.1747 200° South 274 315 8,000 -492 Descending Houston Center
Sun 09:07:20 PM 29.8286 -95.2031 200° South 259 298 7,500 -905 Descending Houston Center
Sun 09:08:25 PM 29.7456 -95.2325 197° South 279 321 6,100 -732 Descending Houston Center
Sun 09:09:23 PM 29.6806 -95.2353 182° South 274 315 6,000 -49 Descending Houston Center
Sun 09:10:27 PM 29.5908 -95.2392 182° South 265 305 6,000 -585 Level Houston Center
Sun 09:11:26 PM 29.5347 -95.2678 204° Southwest 242 278 4,800 -1,350 Descending Houston Center
Sun 09:12:27 PM 29.4881 -95.3206 225° Southwest 238 274 3,300 -1,366 Descending Houston Center
Sun 09:13:29 PM 29.5206 -95.3639 311° West 234 269 2,000 -878 Descending Houston Center
Sun 09:14:30 PM 29.5714 -95.3503 13° North 203 234 1,500 -488 Descending Houston Center
Sun 09:15:32 PM 29.6039 -95.3258 33° Northeast 160 184 1,000 -585 Descending Houston Center
Sun 09:16:33 PM 29.6317 -95.2944 44° Northeast 129 148 300 -443 Descending Houston Center
Sun 09:17:34 PM 29.6553 -95.2681 44° Northeast 137 158 100 -197 Descending Houston Center

Login

Don't have an account? Register now (free) for customized features, flight alerts, and more!